Time;durP1;ratioP1;P1;durP2;ratioP2;P2;SDS_P1;SDS_P2;PMS_P1;PMS_P2;Temp;Humidity;BMP_temperature;BMP_pressure;BME280_temperature;BME280_humidity;BME280_pressure;Samples;Min_cycle;Max_cycle;Signal;HPM_P1;HPM_P2
2023/11/16 00:01:28;;;;;;;17.00;8.43;;;4.20;99.90;;;;;;4953222;29;20207;-83
2023/11/16 00:03:56;;;;;;;16.70;8.00;;;4.20;99.90;;;;;;4954682;29;20190;-83
2023/11/16 00:06:23;;;;;;;13.23;7.33;;;4.20;99.90;;;;;;4953288;29;20730;-83
2023/11/16 00:08:51;;;;;;;14.77;7.80;;;4.10;99.90;;;;;;4953123;29;20199;-83
2023/11/16 00:11:19;;;;;;;14.07;7.67;;;4.00;99.90;;;;;;4954485;29;20219;-83
2023/11/16 00:13:46;;;;;;;15.10;7.97;;;4.00;99.90;;;;;;4954534;29;20200;-82
2023/11/16 00:16:16;;;;;;;14.57;8.97;;;3.90;99.90;;;;;;4954288;29;20352;-83
2023/11/16 00:18:44;;;;;;;14.23;8.20;;;3.80;99.90;;;;;;4954862;29;20205;-83
2023/11/16 00:21:11;;;;;;;13.80;8.27;;;3.70;99.90;;;;;;4936975;29;20263;-82
2023/11/16 00:23:38;;;;;;;12.80;8.33;;;3.80;99.90;;;;;;4954660;29;20204;-81
2023/11/16 00:26:09;;;;;;;13.97;8.37;;;3.70;99.90;;;;;;4953451;29;20214;-83
2023/11/16 00:28:37;;;;;;;14.60;8.30;;;3.60;99.90;;;;;;4954427;29;20195;-83
2023/11/16 00:31:04;;;;;;;15.07;9.07;;;3.50;99.90;;;;;;4954303;29;20197;-82
2023/11/16 00:33:33;;;;;;;15.67;8.73;;;3.40;99.90;;;;;;4954030;29;20195;-83
2023/11/16 00:36:06;;;;;;;16.67;8.80;;;3.50;99.90;;;;;;4952860;29;20647;-83
2023/11/16 00:38:35;;;;;;;16.87;9.00;;;3.40;99.90;;;;;;4937091;29;20224;-83
2023/11/16 00:41:03;;;;;;;16.20;9.10;;;3.30;99.90;;;;;;4952768;29;20714;-82
2023/11/16 00:43:30;;;;;;;17.77;9.57;;;3.30;99.90;;;;;;4953865;29;20206;-83
2023/11/16 00:45:59;;;;;;;15.87;8.20;;;3.30;99.90;;;;;;4954215;29;20527;-83
2023/11/16 00:48:27;;;;;;;16.50;9.33;;;3.30;99.90;;;;;;4954164;29;20502;-82
2023/11/16 00:50:54;;;;;;;16.37;9.40;;;3.20;99.90;;;;;;4954207;29;20292;-83
2023/11/16 00:53:25;;;;;;;16.30;9.17;;;3.20;99.90;;;;;;4954359;29;20208;-82
2023/11/16 00:55:52;;;;;;;19.43;9.73;;;3.10;99.90;;;;;;4954261;29;20218;-83
2023/11/16 00:58:21;;;;;;;18.73;9.40;;;3.10;99.90;;;;;;4952359;29;20206;-83
2023/11/16 01:00:51;;;;;;;16.37;9.50;;;3.10;99.90;;;;;;4936884;29;20703;-83
2023/11/16 01:03:20;;;;;;;21.47;10.23;;;3.10;99.90;;;;;;4954332;29;20205;-83
2023/11/16 01:05:47;;;;;;;19.20;10.10;;;3.00;99.90;;;;;;4953995;29;20285;-83
2023/11/16 01:08:16;;;;;;;19.63;10.57;;;3.00;99.90;;;;;;4953641;29;20214;-82
2023/11/16 01:10:43;;;;;;;19.50;10.73;;;3.00;99.90;;;;;;4953640;29;20226;-83
2023/11/16 01:13:11;;;;;;;23.67;11.80;;;3.00;99.90;;;;;;4953628;29;20284;-83
2023/11/16 01:15:38;;;;;;;20.03;11.20;;;2.90;99.90;;;;;;4952811;29;20281;-83
2023/11/16 01:18:12;;;;;;;21.97;11.40;;;2.90;99.90;;;;;;4937181;29;20534;-83
2023/11/16 01:20:40;;;;;;;23.20;11.90;;;2.90;99.90;;;;;;4953992;29;20206;-83
2023/11/16 01:23:12;;;;;;;22.47;11.90;;;2.90;99.90;;;;;;4953809;29;20229;-83
2023/11/16 01:25:51;;;;;;;22.73;11.87;;;2.90;99.90;;;;;;4936314;29;20217;-83
2023/11/16 01:28:20;;;;;;;23.73;12.13;;;2.80;99.90;;;;;;4953830;29;20700;-83
2023/11/16 01:30:48;;;;;;;21.90;11.70;;;2.80;99.90;;;;;;4953584;29;20196;-83
2023/11/16 01:33:15;;;;;;;25.33;12.20;;;2.80;99.90;;;;;;4953778;29;20217;-83
2023/11/16 01:35:44;;;;;;;23.80;12.30;;;2.80;99.90;;;;;;4952643;29;20268;-83
2023/11/16 01:38:12;;;;;;;22.73;12.03;;;2.80;99.90;;;;;;4955742;28;20198;-82
2023/11/16 01:40:40;;;;;;;24.07;11.23;;;2.80;99.90;;;;;;4940059;29;20245;-83
2023/11/16 01:43:08;;;;;;;21.40;11.37;;;2.80;99.90;;;;;;4956811;29;20663;-82
2023/11/16 01:45:35;;;;;;;22.37;11.43;;;2.70;99.90;;;;;;4957170;29;20713;-82
2023/11/16 01:48:06;;;;;;;21.07;11.10;;;2.70;99.90;;;;;;4956769;29;20222;-82
2023/11/16 01:50:36;;;;;;;20.07;10.97;;;2.70;99.90;;;;;;4940232;29;20195;-83
2023/11/16 01:53:11;;;;;;;20.43;11.30;;;2.70;99.90;;;;;;4956655;29;20298;-82
2023/11/16 01:55:41;;;;;;;24.83;11.40;;;2.70;99.90;;;;;;4956893;29;20272;-82
2023/11/16 01:58:09;;;;;;;22.50;11.80;;;2.70;99.90;;;;;;4956992;29;20288;-82
2023/11/16 02:00:42;;;;;;;20.40;11.03;;;2.70;99.90;;;;;;4939614;29;20221;-82
2023/11/16 02:03:10;;;;;;;19.00;11.03;;;2.70;99.90;;;;;;4956754;29;20221;-83
2023/11/16 02:05:38;;;;;;;20.07;10.73;;;2.70;99.90;;;;;;4939402;29;20301;-82
2023/11/16 02:08:10;;;;;;;20.53;11.03;;;2.70;99.90;;;;;;4956581;29;20248;-82
2023/11/16 02:10:39;;;;;;;20.57;10.80;;;2.60;99.90;;;;;;4955226;29;20220;-82
2023/11/16 02:13:18;;;;;;;23.77;11.67;;;2.70;99.90;;;;;;4956436;29;20685;-82
2023/11/16 02:15:46;;;;;;;24.10;11.50;;;2.50;99.90;;;;;;4939569;29;20199;-82
2023/11/16 02:18:14;;;;;;;22.13;11.70;;;2.50;99.90;;;;;;4956232;29;20209;-82
2023/11/16 02:20:45;;;;;;;21.60;11.30;;;2.50;99.90;;;;;;4956333;29;20212;-82
2023/11/16 02:23:15;;;;;;;21.53;11.77;;;2.50;99.90;;;;;;4956628;29;20190;-82
2023/11/16 02:25:51;;;;;;;22.57;11.50;;;2.40;99.90;;;;;;4956413;29;20573;-82
2023/11/16 02:28:20;;;;;;;26.87;11.93;;;2.40;99.90;;;;;;4956378;29;20233;-82
2023/11/16 02:30:48;;;;;;;23.30;12.50;;;2.40;99.90;;;;;;4956013;29;20578;-82
2023/11/16 02:33:15;;;;;;;22.07;11.63;;;2.40;99.90;;;;;;4956212;29;20220;-82
2023/11/16 02:35:43;;;;;;;25.77;12.23;;;2.40;99.90;;;;;;4956254;29;20195;-82
2023/11/16 02:38:12;;;;;;;24.90;11.90;;;2.40;99.90;;;;;;4939264;29;20204;-82
2023/11/16 02:40:41;;;;;;;27.77;12.23;;;2.40;99.90;;;;;;4955786;29;20580;-82
2023/11/16 02:43:08;;;;;;;22.93;11.80;;;2.40;99.90;;;;;;4955862;29;20305;-82
2023/11/16 02:45:36;;;;;;;25.70;13.00;;;2.40;99.90;;;;;;4955790;29;20198;-82
2023/11/16 02:48:09;;;;;;;26.33;12.37;;;2.40;99.90;;;;;;4938012;29;20682;-83
2023/11/16 02:50:37;;;;;;;25.53;12.87;;;2.40;99.90;;;;;;4955881;29;20199;-83
2023/11/16 02:53:04;;;;;;;24.17;12.30;;;2.40;99.90;;;;;;4922551;29;20226;-83
2023/11/16 02:55:34;;;;;;;25.13;13.13;;;2.50;99.90;;;;;;4955538;29;20210;-82
2023/11/16 02:58:02;;;;;;;23.50;11.77;;;2.40;99.90;;;;;;4955883;29;20221;-83
2023/11/16 03:00:31;;;;;;;22.27;11.47;;;2.40;99.90;;;;;;4955790;29;20261;-83
2023/11/16 03:03:02;;;;;;;21.70;11.67;;;2.50;99.90;;;;;;4955918;29;20245;-82
2023/11/16 03:05:30;;;;;;;21.07;11.53;;;2.50;99.90;;;;;;4955471;29;20241;-82
2023/11/16 03:07:57;;;;;;;24.40;11.40;;;2.50;99.90;;;;;;4955347;29;20222;-83
2023/11/16 03:10:24;;;;;;;24.07;11.57;;;2.50;99.90;;;;;;4938364;29;20226;-83
2023/11/16 03:12:52;;;;;;;23.40;12.43;;;2.50;99.90;;;;;;4954508;29;20288;-82
2023/11/16 03:15:20;;;;;;;22.47;12.60;;;2.50;99.90;;;;;;4938066;29;20201;-82
2023/11/16 03:17:47;;;;;;;22.90;12.37;;;2.50;99.90;;;;;;4955147;29;20197;-83
2023/11/16 03:20:17;;;;;;;22.73;11.83;;;2.50;99.90;;;;;;4938174;29;20205;-82
2023/11/16 03:22:44;;;;;;;24.67;12.20;;;2.50;99.90;;;;;;4955409;29;20194;-82
2023/11/16 03:25:12;;;;;;;22.90;12.23;;;2.60;99.90;;;;;;4955327;29;20194;-82
2023/11/16 03:27:42;;;;;;;24.47;12.40;;;2.60;99.90;;;;;;4953782;29;20228;-82
2023/11/16 03:30:10;;;;;;;25.03;12.40;;;2.70;99.90;;;;;;4955230;29;20202;-82
2023/11/16 03:32:37;;;;;;;24.13;12.57;;;2.70;99.90;;;;;;4955052;29;20662;-82
2023/11/16 03:35:05;;;;;;;20.80;12.00;;;2.80;99.90;;;;;;4954861;29;20714;-82
2023/11/16 03:37:32;;;;;;;21.93;11.73;;;2.80;99.90;;;;;;4955234;29;20218;-82
2023/11/16 03:40:02;;;;;;;21.63;11.90;;;2.80;99.90;;;;;;4954983;29;20233;-82
2023/11/16 03:42:29;;;;;;;25.07;12.53;;;2.90;99.90;;;;;;4954819;29;20265;-82
2023/11/16 03:44:56;;;;;;;24.47;12.43;;;2.90;99.90;;;;;;4954980;29;20314;-83
2023/11/16 03:47:24;;;;;;;24.33;12.20;;;2.80;99.90;;;;;;4954685;29;20730;-83
2023/11/16 03:49:51;;;;;;;25.27;12.47;;;2.80;99.90;;;;;;4953412;29;20662;-82
2023/11/16 03:52:18;;;;;;;24.97;12.83;;;2.80;99.90;;;;;;4954834;29;20218;-82
2023/11/16 03:54:45;;;;;;;24.37;12.67;;;2.70;99.90;;;;;;4937549;29;20661;-82
2023/11/16 03:57:13;;;;;;;23.37;11.80;;;2.70;99.90;;;;;;4954692;29;20233;-82
2023/11/16 03:59:41;;;;;;;23.87;12.20;;;2.60;99.90;;;;;;4953038;28;20202;-82
2023/11/16 04:02:08;;;;;;;24.67;12.33;;;2.60;99.90;;;;;;4954786;29;20227;-82
2023/11/16 04:04:36;;;;;;;22.80;12.50;;;2.60;99.90;;;;;;4954253;29;20260;-82
2023/11/16 04:07:03;;;;;;;25.23;12.57;;;2.60;99.90;;;;;;4954632;29;20200;-82
2023/11/16 04:09:30;;;;;;;24.67;12.50;;;2.50;99.90;;;;;;4954574;29;20198;-82
2023/11/16 04:12:00;;;;;;;25.27;13.20;;;2.40;99.90;;;;;;4954414;29;20218;-82
2023/11/16 04:14:27;;;;;;;26.57;13.60;;;2.30;99.90;;;;;;4954661;29;20233;-83
2023/11/16 04:16:55;;;;;;;25.13;13.50;;;2.20;99.90;;;;;;4954551;29;20259;-82
2023/11/16 04:19:25;;;;;;;28.97;14.07;;;2.20;99.90;;;;;;4954473;29;20197;-82
2023/11/16 04:21:56;;;;;;;25.87;14.37;;;2.10;99.90;;;;;;4954565;29;20197;-82
2023/11/16 04:24:24;;;;;;;30.27;14.60;;;2.10;99.90;;;;;;4954561;29;20292;-82
2023/11/16 04:26:52;;;;;;;33.30;15.67;;;2.00;99.90;;;;;;4954424;29;20277;-83
2023/11/16 04:29:19;;;;;;;36.27;17.23;;;2.00;99.90;;;;;;4954332;29;20658;-82
2023/11/16 04:31:49;;;;;;;38.90;17.87;;;2.00;99.90;;;;;;4954317;29;20303;-82
2023/11/16 04:34:16;;;;;;;35.93;16.60;;;1.90;99.90;;;;;;4952963;29;20253;-82
2023/11/16 04:36:43;;;;;;;36.80;16.47;;;2.00;99.90;;;;;;4954374;29;20253;-82
2023/11/16 04:39:11;;;;;;;38.30;16.20;;;1.90;99.90;;;;;;4954294;29;20227;-83
2023/11/16 04:41:45;;;;;;;34.77;16.87;;;2.00;99.90;;;;;;4954091;29;20212;-82
2023/11/16 04:44:12;;;;;;;37.57;17.20;;;2.00;99.90;;;;;;4954565;29;20627;-82
2023/11/16 04:46:47;;;;;;;33.97;16.53;;;1.90;99.90;;;;;;4954109;29;20573;-82
2023/11/16 04:49:15;;;;;;;35.80;16.63;;;2.00;99.90;;;;;;4954283;29;20276;-81
2023/11/16 04:51:44;;;;;;;40.37;17.57;;;2.00;99.90;;;;;;4937390;29;20602;-82
2023/11/16 04:54:11;;;;;;;38.47;17.27;;;2.00;99.90;;;;;;4954266;29;20253;-82
2023/11/16 04:56:39;;;;;;;37.63;16.77;;;1.80;99.90;;;;;;4954049;29;20223;-82
2023/11/16 04:59:08;;;;;;;39.33;17.47;;;1.90;99.90;;;;;;4954032;29;20222;-82
2023/11/16 05:01:35;;;;;;;39.97;17.73;;;1.80;99.90;;;;;;4953800;29;20655;-82
2023/11/16 05:04:03;;;;;;;37.10;16.63;;;1.80;99.90;;;;;;4952447;29;20725;-82
2023/11/16 05:06:31;;;;;;;36.73;17.37;;;1.80;99.90;;;;;;4954381;29;20281;-82
2023/11/16 05:08:58;;;;;;;37.13;17.07;;;1.80;99.90;;;;;;4953716;29;20695;-83
2023/11/16 05:11:26;;;;;;;37.73;17.17;;;1.80;99.90;;;;;;4955022;28;20223;-82
2023/11/16 05:13:53;;;;;;;41.67;18.07;;;1.70;99.90;;;;;;4940618;29;20202;-82
2023/11/16 05:16:26;;;;;;;40.30;18.20;;;1.70;99.90;;;;;;4957794;29;20209;-82
2023/11/16 05:18:55;;;;;;;41.00;18.47;;;1.80;99.90;;;;;;4940462;29;20209;-82
2023/11/16 05:21:22;;;;;;;41.47;18.30;;;1.70;99.90;;;;;;4956439;29;20264;-82
2023/11/16 05:23:49;;;;;;;41.90;17.83;;;1.80;99.90;;;;;;4957274;29;20658;-82
2023/11/16 05:26:16;;;;;;;37.83;17.33;;;1.80;99.90;;;;;;4957437;29;20224;-82
2023/11/16 05:28:44;;;;;;;44.67;18.47;;;1.80;99.90;;;;;;4957387;29;20222;-81
2023/11/16 05:31:11;;;;;;;45.40;18.53;;;1.90;99.90;;;;;;4957412;29;20242;-82
2023/11/16 05:33:38;;;;;;;43.47;18.23;;;1.90;99.90;;;;;;4955861;28;20198;-82
2023/11/16 05:36:06;;;;;;;40.40;18.13;;;1.80;99.90;;;;;;4957261;29;20230;-82
2023/11/16 05:38:34;;;;;;;57.10;19.57;;;1.70;99.90;;;;;;4956906;29;20207;-82
2023/11/16 05:41:02;;;;;;;50.77;18.50;;;1.70;99.90;;;;;;4956871;29;20257;-82
2023/11/16 05:43:30;;;;;;;58.00;19.53;;;1.60;99.90;;;;;;4957245;29;20204;-82
2023/11/16 05:45:57;;;;;;;51.67;18.93;;;1.60;99.90;;;;;;4956893;29;20647;-82
2023/11/16 05:48:24;;;;;;;44.20;18.07;;;1.70;99.90;;;;;;4956845;29;20269;-81
2023/11/16 05:50:51;;;;;;;47.43;18.67;;;1.70;99.90;;;;;;4939685;29;20657;-82
2023/11/16 05:53:18;;;;;;;106.57;20.13;;;1.60;99.90;;;;;;4957141;29;20565;-82
2023/11/16 05:55:46;;;;;;;47.53;19.47;;;1.60;99.90;;;;;;4958845;29;20223;-82
2023/11/16 05:58:13;;;;;;;53.23;18.20;;;1.60;99.90;;;;;;4956658;29;20723;-82
2023/11/16 06:00:41;;;;;;;46.80;19.17;;;1.70;99.90;;;;;;4955430;29;20205;-82
2023/11/16 06:03:08;;;;;;;130.47;20.63;;;1.70;99.90;;;;;;4939804;29;20296;-83
2023/11/16 06:05:35;;;;;;;128.20;21.80;;;1.60;99.90;;;;;;4956506;29;20220;-82
2023/11/16 06:08:03;;;;;;;88.27;18.97;;;1.50;99.90;;;;;;4955300;29;20257;-82
2023/11/16 06:10:31;;;;;;;63.20;18.40;;;1.50;99.90;;;;;;4956212;29;20227;-82
2023/11/16 06:13:00;;;;;;;58.70;18.67;;;1.60;99.90;;;;;;4956720;29;20202;-82
2023/11/16 06:15:28;;;;;;;189.77;21.10;;;1.60;99.90;;;;;;4956440;29;20669;-83
2023/11/16 06:17:58;;;;;;;68.20;19.53;;;1.50;99.90;;;;;;4956602;29;20210;-83
2023/11/16 06:20:25;;;;;;;44.43;17.63;;;1.50;99.90;;;;;;4954966;29;20221;-83
2023/11/16 06:22:53;;;;;;;42.37;18.10;;;1.70;99.90;;;;;;4955596;28;20194;-83
2023/11/16 06:25:20;;;;;;;70.97;18.93;;;1.70;99.90;;;;;;4938984;29;20682;-83
2023/11/16 06:27:50;;;;;;;48.33;18.43;;;1.70;99.90;;;;;;4956593;29;20198;-83
2023/11/16 06:30:18;;;;;;;85.73;18.10;;;1.80;99.90;;;;;;4956572;29;20191;-84
2023/11/16 06:32:46;;;;;;;46.40;18.37;;;1.80;99.90;;;;;;4956576;29;20221;-83
2023/11/16 06:35:14;;;;;;;42.33;17.80;;;1.80;99.90;;;;;;4956231;29;20186;-83
2023/11/16 06:37:42;;;;;;;44.80;18.57;;;1.90;99.90;;;;;;4956477;29;20592;-83
2023/11/16 06:40:10;;;;;;;46.80;18.03;;;2.00;99.90;;;;;;4956341;29;20229;-83
2023/11/16 06:42:38;;;;;;;67.57;19.50;;;2.10;99.90;;;;;;4955990;28;20667;-83
2023/11/16 06:45:07;;;;;;;43.33;18.03;;;2.00;99.90;;;;;;4939132;29;20240;-83
2023/11/16 06:47:35;;;;;;;40.07;17.83;;;2.10;99.90;;;;;;4955879;29;20194;-82
2023/11/16 06:50:03;;;;;;;41.10;17.50;;;2.10;99.90;;;;;;4938483;29;20722;-82
2023/11/16 06:52:32;;;;;;;43.27;17.43;;;2.20;99.90;;;;;;4956121;29;20685;-82
2023/11/16 06:55:00;;;;;;;43.33;17.13;;;2.20;99.90;;;;;;4923058;29;20202;-82
2023/11/16 06:57:28;;;;;;;60.50;17.63;;;2.30;99.90;;;;;;4955633;29;20198;-82
2023/11/16 06:59:57;;;;;;;47.43;17.77;;;2.20;99.90;;;;;;4955797;29;20194;-82
2023/11/16 07:02:24;;;;;;;53.23;18.20;;;2.20;99.90;;;;;;4954737;29;20202;-82
2023/11/16 07:04:52;;;;;;;68.27;17.40;;;2.20;99.90;;;;;;4938047;29;20232;-82
2023/11/16 07:07:19;;;;;;;47.40;17.70;;;2.10;99.90;;;;;;4938590;29;20388;-82
2023/11/16 07:09:49;;;;;;;36.83;16.97;;;2.10;99.90;;;;;;4955195;29;20686;-83
2023/11/16 07:12:20;;;;;;;46.07;16.80;;;2.20;99.90;;;;;;4955453;29;20224;-82
2023/11/16 07:14:48;;;;;;;35.00;16.17;;;2.20;99.90;;;;;;4955580;29;20193;-82
2023/11/16 07:17:21;;;;;;;38.80;15.83;;;2.20;99.90;;;;;;4954846;28;20293;-82
2023/11/16 07:19:49;;;;;;;81.93;16.43;;;2.20;99.90;;;;;;4955160;29;20379;-82
2023/11/16 07:22:17;;;;;;;39.50;16.47;;;2.10;99.90;;;;;;4955143;29;20295;-81
2023/11/16 07:24:47;;;;;;;32.07;15.37;;;2.10;99.90;;;;;;4955071;29;20190;-80
2023/11/16 07:27:14;;;;;;;37.07;16.23;;;2.20;99.90;;;;;;4955243;29;20225;-81
2023/11/16 07:29:45;;;;;;;43.43;16.67;;;2.30;99.90;;;;;;4955058;29;20221;-81
2023/11/16 07:32:12;;;;;;;60.67;15.90;;;2.40;99.90;;;;;;4938019;29;20633;-81
2023/11/16 07:34:41;;;;;;;46.13;16.20;;;2.50;99.90;;;;;;4937581;29;20292;-81
2023/11/16 07:37:11;;;;;;;34.10;14.93;;;2.20;99.90;;;;;;4954866;29;20659;-82
2023/11/16 07:39:40;;;;;;;34.57;15.30;;;2.20;99.90;;;;;;4955271;29;20543;-81
2023/11/16 07:42:09;;;;;;;35.97;14.87;;;2.30;99.90;;;;;;4937484;29;20309;-82
2023/11/16 07:44:38;;;;;;;38.43;15.37;;;2.30;99.90;;;;;;4954720;29;20191;-82
2023/11/16 07:47:08;;;;;;;33.87;14.83;;;2.30;99.90;;;;;;4954965;29;20203;-79
2023/11/16 07:49:36;;;;;;;39.73;14.73;;;2.40;99.90;;;;;;4954932;29;20253;-81
2023/11/16 07:52:04;;;;;;;28.67;13.03;;;2.40;99.90;;;;;;4954790;29;20202;-82
2023/11/16 07:54:32;;;;;;;29.00;13.57;;;2.40;99.90;;;;;;4937819;29;20248;-88
2023/11/16 07:57:02;;;;;;;29.63;13.43;;;2.50;99.90;;;;;;4938861;29;20232;-86
2023/11/16 07:59:34;;;;;;;29.37;13.97;;;2.60;99.90;;;;;;4938274;29;20202;-88
2023/11/16 08:02:02;;;;;;;31.37;14.43;;;2.60;99.90;;;;;;4953531;29;20190;-89
2023/11/16 08:04:34;;;;;;;31.90;14.10;;;2.70;99.90;;;;;;4939192;29;20246;-87
2023/11/16 08:07:04;;;;;;;29.10;12.60;;;2.80;99.90;;;;;;4939723;29;20217;-87
2023/11/16 08:09:34;;;;;;;27.33;12.90;;;2.70;99.90;;;;;;4953111;29;20229;-87
2023/11/16 08:12:02;;;;;;;30.63;13.10;;;2.60;99.90;;;;;;4953435;29;20225;-87
2023/11/16 08:14:32;;;;;;;35.60;13.03;;;2.70;99.90;;;;;;4954335;29;20730;-89
2023/11/16 08:17:00;;;;;;;30.00;13.40;;;2.70;99.90;;;;;;4937481;29;20659;-85
2023/11/16 08:19:27;;;;;;;29.13;13.63;;;2.80;99.90;;;;;;4954481;28;20209;-84
2023/11/16 08:21:56;;;;;;;30.40;13.03;;;2.90;99.90;;;;;;4954391;29;20244;-90
2023/11/16 08:24:28;;;;;;;31.50;14.13;;;3.00;99.90;;;;;;4938562;29;20297;-89
2023/11/16 08:26:58;;;;;;;43.83;13.40;;;3.10;99.90;;;;;;4942930;29;20333;-93
2023/11/16 08:29:26;;;;;;;23.03;11.53;;;3.00;99.90;;;;;;4945794;29;20324;-91
2023/11/16 08:31:56;;;;;;;44.90;13.03;;;2.70;99.90;;;;;;4941406;29;20206;-88
2023/11/16 08:34:27;;;;;;;27.60;12.17;;;2.80;99.90;;;;;;4954192;29;20441;-87
2023/11/16 08:36:55;;;;;;;36.87;12.53;;;2.80;99.90;;;;;;4937102;29;20221;-88
2023/11/16 08:39:23;;;;;;;25.43;12.13;;;2.90;99.90;;;;;;4956873;29;20202;-87
2023/11/16 08:41:52;;;;;;;28.60;12.80;;;3.00;99.90;;;;;;4954681;29;20484;-88
2023/11/16 08:44:22;;;;;;;24.20;12.17;;;3.10;99.90;;;;;;4954593;29;20186;-84
2023/11/16 08:46:56;;;;;;;26.23;12.80;;;3.20;99.90;;;;;;4938905;29;20193;-87
2023/11/16 08:49:25;;;;;;;23.60;11.67;;;3.30;99.90;;;;;;4956779;29;20225;-87
2023/11/16 08:52:01;;;;;;;26.67;12.17;;;3.20;99.90;;;;;;4958355;29;20698;-87
2023/11/16 08:54:30;;;;;;;28.13;12.40;;;3.20;99.90;;;;;;4958534;29;20198;-89
2023/11/16 08:56:58;;;;;;;35.63;11.57;;;3.20;99.90;;;;;;4957508;29;20230;-87
2023/11/16 08:59:26;;;;;;;28.27;12.70;;;3.00;99.90;;;;;;4956971;29;20817;-86
2023/11/16 09:01:56;;;;;;;31.17;12.20;;;3.00;99.90;;;;;;4959921;29;20725;-87
2023/11/16 09:04:24;;;;;;;27.53;12.00;;;3.10;99.90;;;;;;4940212;29;20642;-88
2023/11/16 09:06:52;;;;;;;31.33;12.23;;;3.10;99.90;;;;;;4925729;29;20199;-90
2023/11/16 09:09:37;;;;;;;25.00;12.07;;;3.20;99.90;;;;;;4957790;29;20222;-87
2023/11/16 09:12:12;;;;;;;24.53;11.93;;;3.20;99.90;;;;;;4941542;29;20628;-89
2023/11/16 09:14:41;;;;;;;25.37;12.10;;;3.30;99.90;;;;;;4959945;29;20249;-85
2023/11/16 09:17:18;;;;;;;26.90;11.40;;;3.30;99.90;;;;;;4957684;29;20191;-87
2023/11/16 09:19:46;;;;;;;23.10;11.47;;;3.30;99.90;;;;;;4958545;29;20227;-86
2023/11/16 09:22:13;;;;;;;22.50;10.87;;;3.20;99.90;;;;;;4957892;29;20198;-85
2023/11/16 09:24:43;;;;;;;21.07;10.10;;;3.30;99.90;;;;;;4956839;29;20186;-86
2023/11/16 09:27:10;;;;;;;23.67;9.93;;;3.30;99.90;;;;;;4957700;29;20624;-85
2023/11/16 09:29:38;;;;;;;21.50;9.97;;;3.40;99.90;;;;;;4941402;29;20222;-88
2023/11/16 09:32:10;;;;;;;18.57;9.37;;;3.30;99.90;;;;;;4956918;29;20226;-87
2023/11/16 09:34:40;;;;;;;22.47;10.53;;;3.30;99.90;;;;;;4955972;28;20199;-87
2023/11/16 09:37:08;;;;;;;21.93;10.93;;;3.30;99.90;;;;;;4959719;29;20222;-89
2023/11/16 09:39:37;;;;;;;19.80;9.83;;;3.50;99.90;;;;;;4941908;29;20606;-88
2023/11/16 09:42:08;;;;;;;19.90;9.77;;;3.60;99.90;;;;;;4958151;29;20215;-92
2023/11/16 09:44:44;;;;;;;18.93;9.60;;;3.70;99.90;;;;;;4959369;29;20202;-91
2023/11/16 09:47:25;;;;;;;19.43;9.13;;;3.70;99.90;;;;;;4943429;29;20201;-91
2023/11/16 09:49:56;;;;;;;17.57;9.03;;;3.70;99.90;;;;;;4963496;29;20214;-91
2023/11/16 09:52:25;;;;;;;18.63;9.03;;;3.80;99.90;;;;;;4962359;29;20198;-87
2023/11/16 09:55:00;;;;;;;18.73;9.40;;;3.90;99.90;;;;;;4957790;29;20237;-89
2023/11/16 09:57:34;;;;;;;17.30;8.90;;;3.90;99.90;;;;;;4956959;28;20553;-88
2023/11/16 10:00:14;;;;;;;17.50;9.07;;;3.90;99.90;;;;;;4958592;29;20205;-87
2023/11/16 10:02:43;;;;;;;15.33;9.07;;;4.00;99.90;;;;;;4956339;29;20194;-86
2023/11/16 10:05:19;;;;;;;16.00;9.20;;;4.00;99.90;;;;;;4957101;29;20237;-87
2023/11/16 10:07:51;;;;;;;19.93;9.50;;;3.90;99.90;;;;;;4958936;29;20195;-91
2023/11/16 10:10:21;;;;;;;17.13;8.53;;;3.90;99.90;;;;;;4957411;29;20227;-86
2023/11/16 10:12:50;;;;;;;16.87;8.63;;;3.80;99.90;;;;;;4957838;29;20202;-91
2023/11/16 10:15:20;;;;;;;20.97;8.13;;;3.80;99.90;;;;;;4956713;29;20253;-86
2023/11/16 10:17:48;;;;;;;16.20;8.27;;;3.80;99.90;;;;;;4972138;29;20261;-90
2023/11/16 10:20:17;;;;;;;18.00;8.43;;;3.60;99.90;;;;;;4971049;29;20237;-87
2023/11/16 10:22:46;;;;;;;17.57;8.87;;;3.70;99.90;;;;;;4958578;29;20752;-88
2023/11/16 10:25:14;;;;;;;18.20;9.03;;;3.70;99.90;;;;;;4960000;29;20191;-88
2023/11/16 10:27:43;;;;;;;16.90;8.13;;;3.70;99.90;;;;;;4958416;29;20200;-88
2023/11/16 10:30:15;;;;;;;15.97;8.80;;;3.90;99.90;;;;;;4959186;29;20214;-90
2023/11/16 10:32:46;;;;;;;15.73;8.33;;;3.90;99.90;;;;;;4961633;29;20182;-88
2023/11/16 10:35:15;;;;;;;15.67;7.57;;;3.90;99.90;;;;;;4960921;29;20273;-91
2023/11/16 10:37:44;;;;;;;14.43;7.87;;;3.60;99.90;;;;;;4944895;29;20262;-92
2023/11/16 10:40:12;;;;;;;14.97;8.47;;;3.70;99.90;;;;;;4940132;29;20265;-88
2023/11/16 10:42:41;;;;;;;17.13;8.63;;;3.80;99.90;;;;;;4956950;29;20212;-86
2023/11/16 10:45:14;;;;;;;19.07;8.70;;;3.70;99.90;;;;;;4956121;29;20198;-85
2023/11/16 10:47:46;;;;;;;17.53;9.10;;;3.80;99.90;;;;;;4955302;29;20234;-87
2023/11/16 10:50:17;;;;;;;17.27;9.03;;;4.00;99.90;;;;;;4924650;29;20229;-89
2023/11/16 10:52:47;;;;;;;18.43;9.90;;;4.00;99.90;;;;;;4956227;29;20183;-86
2023/11/16 10:55:26;;;;;;;18.87;9.37;;;4.20;99.90;;;;;;4939073;29;20195;-85
2023/11/16 10:58:05;;;;;;;17.27;9.03;;;4.30;99.90;;;;;;4956400;29;20200;-86
2023/11/16 11:00:36;;;;;;;16.17;8.73;;;4.40;99.90;;;;;;4956485;29;20287;-86
2023/11/16 11:03:06;;;;;;;15.67;8.17;;;4.50;99.90;;;;;;4960539;29;20301;-86
2023/11/16 11:05:37;;;;;;;15.63;8.20;;;4.40;99.90;;;;;;4956815;29;20241;-87
2023/11/16 11:08:08;;;;;;;14.10;7.47;;;4.30;99.90;;;;;;4954680;29;20200;-89
2023/11/16 11:10:41;;;;;;;14.33;7.93;;;4.00;99.90;;;;;;4955535;28;20567;-86
2023/11/16 11:13:10;;;;;;;13.17;7.63;;;4.00;99.90;;;;;;4940770;29;20206;-88
2023/11/16 11:15:39;;;;;;;16.17;8.73;;;4.20;99.90;;;;;;4956537;29;20247;-89
2023/11/16 11:18:08;;;;;;;14.97;8.80;;;3.90;99.90;;;;;;4955439;29;20209;-82
2023/11/16 11:20:40;;;;;;;16.87;8.47;;;3.80;99.90;;;;;;4955253;29;20198;-82
2023/11/16 11:23:13;;;;;;;18.70;8.83;;;3.80;99.90;;;;;;4954232;29;20195;-82
2023/11/16 11:25:43;;;;;;;14.60;8.57;;;3.90;99.90;;;;;;4955136;29;20309;-82
2023/11/16 11:28:16;;;;;;;17.93;8.83;;;4.00;99.90;;;;;;4955088;29;20281;-82
2023/11/16 11:30:54;;;;;;;18.40;9.43;;;4.20;99.90;;;;;;4955344;29;20223;-82
2023/11/16 11:33:45;;;;;;;16.83;9.13;;;4.30;99.90;;;;;;4955228;29;20206;-81
2023/11/16 11:36:20;;;;;;;14.67;8.27;;;4.60;99.90;;;;;;4955220;29;20199;-83
2023/11/16 11:38:54;;;;;;;13.90;7.80;;;4.70;99.90;;;;;;4953677;29;20249;-83
2023/11/16 11:41:24;;;;;;;14.73;7.83;;;4.70;99.90;;;;;;4953779;29;20248;-81
2023/11/16 11:43:51;;;;;;;13.77;8.20;;;4.70;99.90;;;;;;4953805;29;20206;-81
2023/11/16 11:46:18;;;;;;;15.50;8.07;;;4.50;99.90;;;;;;4953885;29;20210;-82
2023/11/16 11:48:46;;;;;;;16.27;8.63;;;4.40;99.90;;;;;;4954947;29;20201;-82
2023/11/16 11:51:16;;;;;;;14.20;8.50;;;4.50;99.90;;;;;;4954799;29;20215;-84
2023/11/16 11:53:45;;;;;;;14.90;8.47;;;4.70;99.90;;;;;;4954649;29;20218;-83
2023/11/16 11:56:16;;;;;;;15.50;8.07;;;4.80;99.90;;;;;;4953648;29;20221;-81
2023/11/16 11:58:43;;;;;;;14.60;7.87;;;5.10;99.90;;;;;;4954469;29;20196;-83
2023/11/16 12:01:11;;;;;;;14.60;7.17;;;5.30;99.90;;;;;;4954876;29;20260;-83
2023/11/16 12:03:52;;;;;;;13.87;8.10;;;5.40;99.90;;;;;;4954661;29;20298;-84
2023/11/16 12:06:27;;;;;;;14.57;7.87;;;5.60;99.90;;;;;;4954779;29;20199;-82
2023/11/16 12:08:55;;;;;;;12.17;7.10;;;5.50;99.90;;;;;;4937915;29;20212;-82
2023/11/16 12:11:25;;;;;;;15.37;7.33;;;5.40;99.90;;;;;;4953343;29;20238;-81
2023/11/16 12:13:59;;;;;;;16.87;8.67;;;5.40;99.90;;;;;;4954403;29;20662;-81
2023/11/16 12:16:28;;;;;;;15.30;8.70;;;5.30;99.90;;;;;;4954739;29;20263;-82
2023/11/16 12:18:56;;;;;;;15.33;8.97;;;5.30;99.90;;;;;;4937392;29;20561;-81
2023/11/16 12:21:24;;;;;;;17.70;8.90;;;5.20;99.90;;;;;;4952306;28;20267;-85
2023/11/16 12:23:54;;;;;;;13.70;7.70;;;5.20;99.90;;;;;;4954136;29;20205;-85
2023/11/16 12:26:31;;;;;;;11.13;7.47;;;4.90;99.90;;;;;;4954427;29;20263;-85
2023/11/16 12:28:58;;;;;;;18.40;8.37;;;4.80;99.90;;;;;;4954071;29;20284;-83
2023/11/16 12:31:26;;;;;;;14.00;8.10;;;4.50;99.90;;;;;;4954246;29;20235;-83
2023/11/16 12:33:58;;;;;;;15.63;8.30;;;4.40;99.90;;;;;;4954273;29;20194;-83
2023/11/16 12:36:25;;;;;;;15.50;8.47;;;4.50;99.90;;;;;;4954323;29;20701;-81
2023/11/16 12:38:53;;;;;;;16.10;8.87;;;4.60;99.90;;;;;;4953162;29;20199;-82
2023/11/16 12:41:22;;;;;;;15.23;8.43;;;4.60;99.90;;;;;;4954043;29;20265;-84
2023/11/16 12:43:53;;;;;;;15.93;8.70;;;4.40;99.90;;;;;;4954093;29;20697;-83
2023/11/16 12:46:20;;;;;;;18.10;9.53;;;4.20;99.90;;;;;;4936757;29;20212;-83
2023/11/16 12:48:48;;;;;;;21.53;10.57;;;4.20;99.90;;;;;;4954313;29;20232;-85
2023/11/16 12:51:19;;;;;;;18.33;10.17;;;3.90;99.90;;;;;;4953227;29;20221;-86